Nearby METAR Reports

KLWM - Lawrence,MA, USA
Distance from station: NE 12mi, 19km
Updated: Tue, 25-Jun-2019 7:54pm EDT
Light rain, Overcast
Light rain, Overcast
 Wind from S
Wind: S 6 mph , 9 km/h
Temperature: 70°F , 21°C
Dew Point: 66°F , 19°C
Humidity: 88%
Barometer: 29.91 inHg , 1012.9 hPa
Summary: Light Rain
Clouds: Overcast
Visibility: 10 miles , 16 km
Cloud details: Overcast 1300 ft
2019/06/25 23:54 KLWM 252354Z 19005KT 10SM -RA OVC013 21/19 A2991 RMK AO2 RAE16B42 SLP126 P0001 60007 T02110194 10217 20206 53006
KBED - Bedford,MA, USA
Distance from station: SSE 12mi, 19km
Updated: Tue, 25-Jun-2019 8:08pm EDT
Light rain, Mist, Overcast
Light rain, Mist, Overcast
 Wind from S
Wind: S 9 mph , 15 km/h
Temperature: 70°F , 21°C
Dew Point: 66°F , 19°C
Humidity: 88%
Barometer: 29.88 inHg , 1011.9 hPa
Summary: Light rain, Mist
Clouds: Overcast
Visibility: 1 3/4 miles , 2.8 km
Cloud details: Overcast 1200 ft
2019/06/26 00:08 KBED 260008Z 18008KT 1 3/4SM -RA BR OVC012 21/19 A2988 RMK AO2 P0002 T02110189

Metar display script from Saratoga-Weather.org